createdAt,value
2019-02-02T00:01:53.060Z,76.18
2019-02-02T00:04:22.548Z,75.87
2019-02-02T00:06:52.151Z,75.09
2019-02-02T00:09:21.565Z,75.75
2019-02-02T00:11:51.055Z,76.05
2019-02-02T00:14:20.490Z,75.77
2019-02-02T00:16:50.101Z,75.89
2019-02-02T00:19:19.508Z,76.32
2019-02-02T00:21:48.894Z,76.25
2019-02-02T00:24:18.477Z,76.08
2019-02-02T00:26:47.840Z,75.73
2019-02-02T00:29:17.219Z,75.70
2019-02-02T00:31:46.647Z,75.58
2019-02-02T00:34:16.022Z,75.68
2019-02-02T00:36:45.453Z,75.83
2019-02-02T00:39:14.836Z,75.95
2019-02-02T00:41:44.334Z,76.11
2019-02-02T00:44:14.108Z,76.32
2019-02-02T00:46:43.630Z,76.24
2019-02-02T00:49:13.141Z,76.23
2019-02-02T00:51:42.537Z,76.00
2019-02-02T00:54:11.999Z,76.17
2019-02-02T00:56:41.462Z,76.18
2019-02-02T00:59:10.886Z,75.43
2019-02-02T01:01:40.330Z,76.04
2019-02-02T01:04:10.487Z,76.15
2019-02-02T01:06:40.176Z,76.75
2019-02-02T01:09:25.843Z,76.62
2019-02-02T01:11:55.443Z,76.53
2019-02-02T01:14:24.920Z,76.12
2019-02-02T01:16:54.673Z,76.50
2019-02-02T01:19:24.054Z,76.52
2019-02-02T01:21:53.462Z,76.89
2019-02-02T01:24:22.974Z,77.01
2019-02-02T01:26:52.451Z,76.91
2019-02-02T01:29:21.841Z,77.10
2019-02-02T01:31:51.289Z,77.28
2019-02-02T01:34:20.812Z,76.76
2019-02-02T01:36:50.235Z,76.79
2019-02-02T01:39:19.664Z,76.54
2019-02-02T01:41:49.037Z,76.92
2019-02-02T01:44:18.548Z,76.49
2019-02-02T01:46:47.940Z,76.52
2019-02-02T01:49:17.442Z,76.11
2019-02-02T01:51:46.870Z,76.29
2019-02-02T01:54:16.281Z,75.97
2019-02-02T01:56:45.881Z,75.86
2019-02-02T01:59:15.412Z,75.86
2019-02-02T02:01:44.997Z,75.53
2019-02-02T02:04:14.413Z,75.33
2019-02-02T02:06:43.955Z,75.52
2019-02-02T02:09:13.409Z,75.43
2019-02-02T02:11:42.809Z,75.20
2019-02-02T02:14:12.232Z,75.65
2019-02-02T02:16:41.928Z,76.19
2019-02-02T02:19:11.461Z,76.71
2019-02-02T02:21:40.875Z,77.07
2019-02-02T02:24:10.344Z,77.12
2019-02-02T02:26:39.863Z,77.17
2019-02-02T02:29:09.337Z,77.64
2019-02-02T02:31:38.755Z,77.67
2019-02-02T02:34:08.148Z,77.26
2019-02-02T02:36:37.523Z,77.04
2019-02-02T02:39:09.464Z,76.72
2019-02-02T02:41:38.849Z,76.48
2019-02-02T02:44:08.353Z,76.11
2019-02-02T02:46:37.739Z,76.46
2019-02-02T02:49:07.125Z,76.57
2019-02-02T02:51:36.654Z,76.61
2019-02-02T02:54:06.804Z,76.95
2019-02-02T02:56:36.487Z,76.84
2019-02-02T02:59:06.140Z,76.65
2019-02-02T03:01:35.604Z,76.40
2019-02-02T03:04:05.236Z,76.21
2019-02-02T03:06:34.635Z,75.85
2019-02-02T03:09:06.779Z,75.63
2019-02-02T03:11:36.195Z,75.90
2019-02-02T03:14:05.716Z,75.77
2019-02-02T03:16:35.098Z,76.29
2019-02-02T03:19:04.522Z,76.20
2019-02-02T03:21:33.977Z,75.67
2019-02-02T03:24:03.427Z,75.87
2019-02-02T03:26:32.843Z,75.87
2019-02-02T03:29:02.243Z,76.13
2019-02-02T03:31:31.760Z,76.58
2019-02-02T03:34:01.154Z,76.76
2019-02-02T03:36:30.619Z,77.41
2019-02-02T03:39:00.019Z,77.71
2019-02-02T03:41:29.501Z,77.43
2019-02-02T03:43:58.939Z,77.23
2019-02-02T03:46:28.421Z,77.17
2019-02-02T03:48:57.840Z,77.10
2019-02-02T03:51:27.315Z,77.00
2019-02-02T03:54:08.208Z,77.34
2019-02-02T03:56:27.823Z,77.58
2019-02-02T03:59:05.923Z,77.30
2019-02-02T04:01:30.221Z,77.64
2019-02-02T04:03:59.867Z,78.26
2019-02-02T04:06:29.223Z,77.61
2019-02-02T04:08:58.637Z,77.50
2019-02-02T04:11:28.028Z,77.66
2019-02-02T04:13:57.436Z,77.96
2019-02-02T04:16:26.819Z,77.23
2019-02-02T04:18:56.510Z,77.58
2019-02-02T04:21:26.032Z,77.47
2019-02-02T04:23:55.496Z,77.46
2019-02-02T04:26:25.044Z,77.81
2019-02-02T04:28:54.794Z,77.72
2019-02-02T04:31:24.307Z,77.82
2019-02-02T04:33:53.809Z,77.71
2019-02-02T04:36:23.277Z,77.70
2019-02-02T04:38:52.796Z,77.08
2019-02-02T04:41:22.211Z,76.55
2019-02-02T04:43:51.630Z,76.57
2019-02-02T04:46:21.023Z,76.40
2019-02-02T04:48:50.439Z,76.83
2019-02-02T04:51:19.960Z,76.38
2019-02-02T04:53:49.484Z,76.37
2019-02-02T04:56:18.997Z,76.25
2019-02-02T04:58:48.421Z,76.19
2019-02-02T05:01:17.970Z,76.15
2019-02-02T05:03:47.387Z,76.61
2019-02-02T05:06:16.797Z,76.42
2019-02-02T05:08:46.170Z,76.21
2019-02-02T05:11:15.857Z,76.18
2019-02-02T05:13:45.247Z,76.15
2019-02-02T05:16:14.683Z,76.21
2019-02-02T05:18:44.093Z,76.10
2019-02-02T05:21:13.496Z,75.76
2019-02-02T05:23:42.942Z,75.88
2019-02-02T05:26:12.359Z,75.62
2019-02-02T05:28:41.835Z,75.95
2019-02-02T05:31:11.272Z,76.23
2019-02-02T05:33:40.721Z,76.20
2019-02-02T05:36:10.126Z,75.98
2019-02-02T05:38:39.719Z,75.78
2019-02-02T05:41:09.152Z,76.21
2019-02-02T05:43:38.535Z,76.44
2019-02-02T05:46:07.935Z,76.71
2019-02-02T05:48:37.331Z,77.29
2019-02-02T05:51:06.763Z,77.40
2019-02-02T05:53:36.142Z,76.69
2019-02-02T05:56:05.984Z,76.24
2019-02-02T05:58:35.418Z,76.08
2019-02-02T06:01:05.942Z,75.38
2019-02-02T06:03:35.375Z,75.34
2019-02-02T06:06:04.759Z,75.43
2019-02-02T06:08:34.286Z,75.59
2019-02-02T06:11:03.697Z,75.89
2019-02-02T06:13:33.197Z,75.59
2019-02-02T06:16:02.578Z,75.31
2019-02-02T06:18:32.172Z,76.10
2019-02-02T06:21:01.581Z,76.41
2019-02-02T06:23:30.963Z,76.12
2019-02-02T06:26:00.376Z,76.28
2019-02-02T06:28:29.826Z,76.08
2019-02-02T06:31:00.223Z,76.38
2019-02-02T06:33:29.683Z,76.01
2019-02-02T06:35:59.130Z,76.37
2019-02-02T06:38:28.609Z,76.38
2019-02-02T06:40:58.148Z,76.45
2019-02-02T06:43:30.287Z,77.12
2019-02-02T06:45:58.758Z,77.31
2019-02-02T06:48:28.123Z,76.89
2019-02-02T06:50:57.531Z,76.83
2019-02-02T06:53:26.940Z,76.69
2019-02-02T06:55:56.318Z,76.28
2019-02-02T06:58:25.831Z,75.94
2019-02-02T07:00:55.353Z,76.03
2019-02-02T07:03:24.775Z,76.19
2019-02-02T07:05:54.141Z,75.86
2019-02-02T07:08:23.551Z,75.82
2019-02-02T07:10:52.919Z,75.72
2019-02-02T07:13:22.290Z,75.48
2019-02-02T07:15:51.755Z,75.74
2019-02-02T07:18:21.147Z,75.57
2019-02-02T07:20:50.632Z,75.75
2019-02-02T07:23:20.019Z,75.29
2019-02-02T07:25:49.468Z,75.39
2019-02-02T07:28:18.872Z,75.16
2019-02-02T07:30:48.389Z,75.10
2019-02-02T07:33:17.858Z,75.44
2019-02-02T07:35:47.253Z,75.37
2019-02-02T07:38:16.655Z,75.23
2019-02-02T07:40:46.378Z,74.88
2019-02-02T07:43:15.778Z,75.34
2019-02-02T07:45:45.228Z,74.99
2019-02-02T07:48:14.598Z,75.41
2019-02-02T07:50:44.044Z,75.05
2019-02-02T07:53:13.514Z,75.20
2019-02-02T07:55:42.980Z,75.06
2019-02-02T07:58:12.510Z,75.20
2019-02-02T08:00:41.911Z,74.75
2019-02-02T08:03:12.822Z,74.54
2019-02-02T08:05:42.195Z,75.03
2019-02-02T08:08:11.637Z,75.63
2019-02-02T08:10:41.011Z,76.60
2019-02-02T08:13:10.502Z,76.65
2019-02-02T08:15:40.036Z,76.12
2019-02-02T08:18:09.427Z,76.92
2019-02-02T08:20:38.826Z,77.18
2019-02-02T08:23:08.216Z,76.52
2019-02-02T08:25:37.618Z,76.41
2019-02-02T08:28:08.197Z,76.14
2019-02-02T08:30:37.684Z,75.83
2019-02-02T08:33:07.851Z,76.48
2019-02-02T08:35:37.372Z,76.75
2019-02-02T08:38:06.958Z,76.69
2019-02-02T08:40:36.459Z,76.29
2019-02-02T08:43:05.847Z,75.46
2019-02-02T08:45:35.241Z,75.51
2019-02-02T08:48:04.865Z,74.99
2019-02-02T08:50:36.815Z,75.08
2019-02-02T08:53:06.537Z,75.72
2019-02-02T08:55:35.956Z,76.13
2019-02-02T08:58:05.824Z,76.37
2019-02-02T09:00:35.502Z,76.71
2019-02-02T09:03:05.279Z,77.17
2019-02-02T09:05:34.707Z,77.15
2019-02-02T09:08:04.199Z,77.57
2019-02-02T09:10:33.635Z,77.51
2019-02-02T09:13:03.130Z,77.52
2019-02-02T09:15:32.510Z,77.92
2019-02-02T09:18:01.955Z,77.98
2019-02-02T09:20:31.431Z,77.05
2019-02-02T09:23:06.235Z,77.10
2019-02-02T09:25:32.263Z,77.02
2019-02-02T09:28:03.378Z,76.39
2019-02-02T09:30:35.212Z,75.59
2019-02-02T09:33:05.185Z,75.58
2019-02-02T09:35:34.583Z,76.04
2019-02-02T09:38:04.071Z,75.56
2019-02-02T09:40:33.491Z,75.12
2019-02-02T09:43:02.900Z,75.60
2019-02-02T09:45:32.312Z,75.69
2019-02-02T09:48:03.361Z,75.51
2019-02-02T09:50:33.153Z,75.90
2019-02-02T09:53:02.562Z,75.79
2019-02-02T09:55:31.943Z,75.41
2019-02-02T09:58:04.943Z,75.21
2019-02-02T10:00:34.340Z,75.57
2019-02-02T10:03:03.763Z,74.83
2019-02-02T10:05:33.252Z,74.94
2019-02-02T10:08:02.775Z,75.30
2019-02-02T10:10:34.095Z,75.38
2019-02-02T10:13:05.385Z,75.51
2019-02-02T10:15:34.813Z,75.56
2019-02-02T10:18:05.296Z,76.08
2019-02-02T10:20:34.753Z,76.42
2019-02-02T10:23:04.667Z,76.49
2019-02-02T10:25:34.059Z,76.21
2019-02-02T10:28:03.433Z,76.19
2019-02-02T10:30:43.895Z,75.98
2019-02-02T10:33:14.663Z,75.45
2019-02-02T10:35:44.474Z,74.84
2019-02-02T10:38:13.899Z,75.70
2019-02-02T10:40:43.292Z,76.68
2019-02-02T10:43:12.996Z,76.20
2019-02-02T10:45:42.381Z,76.49
2019-02-02T10:48:11.779Z,76.08
2019-02-02T10:50:41.165Z,76.41
2019-02-02T10:53:10.699Z,76.59
2019-02-02T10:55:40.251Z,76.22
2019-02-02T10:58:09.761Z,75.73
2019-02-02T11:00:40.893Z,75.46
2019-02-02T11:03:10.543Z,75.18
2019-02-02T11:05:40.024Z,74.79
2019-02-02T11:08:09.587Z,74.34
2019-02-02T11:10:39.048Z,74.77
2019-02-02T11:13:09.106Z,75.02
2019-02-02T11:15:38.893Z,75.78
2019-02-02T11:18:08.886Z,75.22
2019-02-02T11:20:38.388Z,74.41
2019-02-02T11:23:07.839Z,73.88
2019-02-02T11:25:37.432Z,73.99
2019-02-02T11:28:07.079Z,74.01
2019-02-02T11:30:37.017Z,74.14
2019-02-02T11:33:06.413Z,74.80
2019-02-02T11:35:35.917Z,74.86
2019-02-02T11:38:05.447Z,75.20
2019-02-02T11:40:35.412Z,75.55
2019-02-02T11:43:05.251Z,75.82
2019-02-02T11:45:34.654Z,75.78
2019-02-02T11:48:04.530Z,75.61
2019-02-02T11:50:34.155Z,74.99
2019-02-02T11:53:03.560Z,74.81
2019-02-02T11:55:32.977Z,73.28
2019-02-02T11:58:02.367Z,74.00
2019-02-02T12:00:40.137Z,73.76
2019-02-02T12:03:09.610Z,73.36
2019-02-02T12:05:39.007Z,72.72
2019-02-02T12:08:08.670Z,71.42
2019-02-02T12:10:38.045Z,69.53
2019-02-02T12:13:07.564Z,69.18
2019-02-02T12:15:36.966Z,69.11
2019-02-02T12:18:06.561Z,68.16
2019-02-02T12:20:35.998Z,69.07
2019-02-02T12:23:05.727Z,69.66
2019-02-02T12:25:35.136Z,71.65
2019-02-02T12:28:05.024Z,71.07
2019-02-02T12:30:35.664Z,71.54
2019-02-02T12:33:06.138Z,74.15
2019-02-02T12:35:35.672Z,75.11
2019-02-02T12:38:05.293Z,76.18
2019-02-02T12:40:34.782Z,75.34
2019-02-02T12:43:04.594Z,73.68
2019-02-02T12:45:49.319Z,73.89
2019-02-02T12:48:18.787Z,73.73
2019-02-02T12:50:48.285Z,74.96
2019-02-02T12:53:18.029Z,75.13
2019-02-02T12:55:47.421Z,75.29
2019-02-02T12:58:16.818Z,75.38
2019-02-02T13:00:46.526Z,76.53
2019-02-02T13:03:15.946Z,76.36
2019-02-02T13:05:45.434Z,76.71
2019-02-02T13:08:14.861Z,75.00
2019-02-02T13:10:44.298Z,75.44
2019-02-02T13:13:13.791Z,76.31
2019-02-02T13:15:43.177Z,74.14
2019-02-02T13:18:12.596Z,72.69
2019-02-02T13:20:42.005Z,72.70
2019-02-02T13:23:11.471Z,72.27
2019-02-02T13:25:41.046Z,71.75
2019-02-02T13:28:10.580Z,71.62
2019-02-02T13:30:40.206Z,71.34
2019-02-02T13:33:09.573Z,71.40
2019-02-02T13:35:41.732Z,72.05
2019-02-02T13:38:11.221Z,71.48
2019-02-02T13:40:40.711Z,71.75
2019-02-02T13:43:10.203Z,73.04
2019-02-02T13:45:39.639Z,72.97
2019-02-02T13:48:09.040Z,71.81
2019-02-02T13:50:38.469Z,70.71
2019-02-02T13:53:09.515Z,73.14
2019-02-02T13:55:39.897Z,71.65
2019-02-02T13:58:09.824Z,70.96
2019-02-02T14:00:39.306Z,71.46
2019-02-02T14:03:08.723Z,72.84
2019-02-02T14:05:38.776Z,73.87
2019-02-02T14:08:08.185Z,74.73
2019-02-02T14:10:37.829Z,74.42
2019-02-02T14:13:07.230Z,73.07
2019-02-02T14:15:39.139Z,71.64
2019-02-02T14:18:07.906Z,70.99
2019-02-02T14:20:37.310Z,68.61
2019-02-02T14:23:07.006Z,70.68
2019-02-02T14:25:36.397Z,73.04
2019-02-02T14:28:06.145Z,72.76
2019-02-02T14:30:35.631Z,71.14
2019-02-02T14:33:13.728Z,71.30
2019-02-02T14:35:36.520Z,71.13
2019-02-02T14:38:06.021Z,70.93
2019-02-02T14:40:35.555Z,70.34
2019-02-02T14:43:05.143Z,69.66
2019-02-02T14:45:34.835Z,70.31
2019-02-02T14:48:05.903Z,72.02
2019-02-02T14:50:35.293Z,71.62
2019-02-02T14:53:05.226Z,73.44
2019-02-02T14:55:34.709Z,73.74
2019-02-02T14:58:04.849Z,76.59
2019-02-02T15:00:34.669Z,75.42
2019-02-02T15:03:04.495Z,74.82
2019-02-02T15:05:42.573Z,74.54
2019-02-02T15:08:05.075Z,73.99
2019-02-02T15:10:34.505Z,72.69
2019-02-02T15:13:03.895Z,72.20
2019-02-02T15:15:33.381Z,72.07
2019-02-02T15:18:02.786Z,71.68
2019-02-02T15:20:34.666Z,71.47
2019-02-02T15:23:04.707Z,71.60
2019-02-02T15:25:34.110Z,71.68
2019-02-02T15:28:03.506Z,71.90
2019-02-02T15:30:33.307Z,72.22
2019-02-02T15:33:02.711Z,72.06
2019-02-02T15:35:32.341Z,71.93
2019-02-02T15:38:03.102Z,72.56
2019-02-02T15:40:32.573Z,73.38
2019-02-02T15:43:01.961Z,73.59
2019-02-02T15:45:31.808Z,73.78
2019-02-02T15:48:01.388Z,74.23
2019-02-02T15:50:30.778Z,75.22
2019-02-02T15:53:00.331Z,75.49
2019-02-02T15:55:29.822Z,75.77
2019-02-02T15:57:59.194Z,75.55
2019-02-02T16:00:33.439Z,76.49
2019-02-02T16:03:02.827Z,76.29
2019-02-02T16:05:32.559Z,76.63
2019-02-02T16:08:03.583Z,77.23
2019-02-02T16:10:33.557Z,76.75
2019-02-02T16:13:03.475Z,76.88
2019-02-02T16:15:34.218Z,77.72
2019-02-02T16:18:04.471Z,78.13
2019-02-02T16:20:36.411Z,78.20
2019-02-02T16:23:06.788Z,78.71
2019-02-02T16:25:36.363Z,79.15
2019-02-02T16:28:06.215Z,79.57
2019-02-02T16:30:35.638Z,80.93
2019-02-02T16:33:05.599Z,80.29
2019-02-02T16:35:35.016Z,80.30
2019-02-02T16:38:04.728Z,80.01
2019-02-02T16:40:34.155Z,80.73
2019-02-02T16:43:03.699Z,80.63
2019-02-02T16:45:33.118Z,80.21
2019-02-02T16:48:02.622Z,80.24
2019-02-02T16:50:32.134Z,80.89
2019-02-02T16:53:01.577Z,80.84
2019-02-02T16:55:31.166Z,81.05
2019-02-02T16:58:00.852Z,81.39
2019-02-02T17:00:32.303Z,81.48
2019-02-02T17:03:01.972Z,81.23
2019-02-02T17:05:31.385Z,80.92
2019-02-02T17:08:03.070Z,80.26
2019-02-02T17:10:34.861Z,79.23
2019-02-02T17:13:04.810Z,78.69
2019-02-02T17:15:34.207Z,78.09
2019-02-02T17:18:03.933Z,78.15
2019-02-02T17:20:35.653Z,78.23
2019-02-02T17:23:05.527Z,78.51
2019-02-02T17:25:35.069Z,79.30
2019-02-02T17:28:06.172Z,78.90
2019-02-02T17:30:35.823Z,78.05
2019-02-02T17:33:08.573Z,77.47
2019-02-02T17:35:38.233Z,77.76
2019-02-02T17:38:07.729Z,78.58
2019-02-02T17:40:37.543Z,78.72
2019-02-02T17:43:07.103Z,79.06
2019-02-02T17:45:36.500Z,78.05
2019-02-02T17:48:06.997Z,78.02
2019-02-02T17:50:36.397Z,77.60
2019-02-02T17:53:06.013Z,77.32
2019-02-02T17:55:35.536Z,77.04
2019-02-02T17:58:08.265Z,76.83
2019-02-02T18:00:45.980Z,77.21
2019-02-02T18:03:15.424Z,77.10
2019-02-02T18:05:44.815Z,77.43
2019-02-02T18:08:14.215Z,77.56
2019-02-02T18:10:43.690Z,77.10
2019-02-02T18:13:13.097Z,76.87
2019-02-02T18:15:42.555Z,76.82
2019-02-02T18:18:11.950Z,76.85
2019-02-02T18:20:41.351Z,77.14
2019-02-02T18:23:10.769Z,77.01
2019-02-02T18:25:40.245Z,76.92
2019-02-02T18:28:09.693Z,76.71
2019-02-02T18:30:39.098Z,77.03
2019-02-02T18:33:08.664Z,76.80
2019-02-02T18:35:38.101Z,76.64
2019-02-02T18:38:07.541Z,76.68
2019-02-02T18:40:39.887Z,77.06
2019-02-02T18:43:08.304Z,76.92
2019-02-02T18:45:37.732Z,77.04
2019-02-02T18:48:07.976Z,77.26
2019-02-02T18:50:37.418Z,77.62
2019-02-02T18:53:07.055Z,77.87
2019-02-02T18:55:49.040Z,77.31
2019-02-02T18:58:18.610Z,76.77
2019-02-02T19:00:48.068Z,77.01
2019-02-02T19:03:18.909Z,76.94
2019-02-02T19:05:48.601Z,76.35
2019-02-02T19:08:18.101Z,76.29
2019-02-02T19:10:47.490Z,76.46
2019-02-02T19:13:17.074Z,76.25
2019-02-02T19:15:46.504Z,76.62
2019-02-02T19:18:15.942Z,76.64
2019-02-02T19:20:45.481Z,76.26
2019-02-02T19:23:24.705Z,76.51
2019-02-02T19:25:46.172Z,76.39
2019-02-02T19:28:15.821Z,76.39
2019-02-02T19:30:45.229Z,76.55
2019-02-02T19:33:16.586Z,76.89
2019-02-02T19:35:45.992Z,77.23
2019-02-02T19:38:15.844Z,77.15
2019-02-02T19:40:45.479Z,76.94
2019-02-02T19:43:14.922Z,76.95
2019-02-02T19:45:44.391Z,77.29
2019-02-02T19:48:13.787Z,77.31
2019-02-02T19:50:43.269Z,77.51
2019-02-02T19:53:12.734Z,77.18
2019-02-02T19:55:42.167Z,77.18
2019-02-02T19:58:11.759Z,77.13
2019-02-02T20:00:41.214Z,77.39
2019-02-02T20:03:10.624Z,77.05
2019-02-02T20:05:40.589Z,77.36
2019-02-02T20:08:10.011Z,77.28
2019-02-02T20:10:39.479Z,77.55
2019-02-02T20:13:08.897Z,77.51
2019-02-02T20:15:38.424Z,77.63
2019-02-02T20:18:10.279Z,77.26
2019-02-02T20:20:39.190Z,77.42
2019-02-02T20:23:08.654Z,77.34
2019-02-02T20:25:38.106Z,77.30
2019-02-02T20:28:07.838Z,77.41
2019-02-02T20:30:37.322Z,77.25
2019-02-02T20:33:07.021Z,77.19
2019-02-02T20:35:42.106Z,77.28
2019-02-02T20:38:08.620Z,77.54
2019-02-02T20:40:38.047Z,77.33
2019-02-02T20:43:07.457Z,77.15
2019-02-02T20:45:37.565Z,76.81
2019-02-02T20:48:07.331Z,77.13
2019-02-02T20:50:36.739Z,77.05
2019-02-02T20:53:06.271Z,77.30
2019-02-02T20:55:38.582Z,77.09
2019-02-02T20:58:08.162Z,76.27
2019-02-02T21:00:38.212Z,75.65
2019-02-02T21:03:08.030Z,75.96
2019-02-02T21:05:37.609Z,76.62
2019-02-02T21:08:07.548Z,76.88
2019-02-02T21:10:36.927Z,76.35
2019-02-02T21:13:06.537Z,76.86
2019-02-02T21:15:35.975Z,77.85
2019-02-02T21:18:05.886Z,78.28
2019-02-02T21:20:35.620Z,77.76
2019-02-02T21:23:05.302Z,77.69
2019-02-02T21:25:34.918Z,77.89
2019-02-02T21:28:07.151Z,77.26
2019-02-02T21:30:36.817Z,77.10
2019-02-02T21:33:07.024Z,77.20
2019-02-02T21:35:36.572Z,76.56
2019-02-02T21:38:06.795Z,76.88
2019-02-02T21:40:36.608Z,76.49
2019-02-02T21:43:08.131Z,76.11
2019-02-02T21:45:38.607Z,76.48
2019-02-02T21:48:08.039Z,76.12
2019-02-02T21:50:37.432Z,75.52
2019-02-02T21:53:07.014Z,74.81
2019-02-02T21:55:36.431Z,75.03
2019-02-02T21:58:06.121Z,75.70
2019-02-02T22:00:38.165Z,75.78
2019-02-02T22:03:08.222Z,76.03
2019-02-02T22:05:37.632Z,76.32
2019-02-02T22:08:08.464Z,76.51
2019-02-02T22:10:38.384Z,76.24
2019-02-02T22:13:08.591Z,75.89
2019-02-02T22:15:38.568Z,75.84
2019-02-02T22:18:07.988Z,76.24
2019-02-02T22:20:37.654Z,76.67
2019-02-02T22:23:07.085Z,77.07
2019-02-02T22:25:36.673Z,76.65
2019-02-02T22:28:06.312Z,76.37
2019-02-02T22:30:37.123Z,75.92
2019-02-02T22:33:06.994Z,75.86
2019-02-02T22:35:36.511Z,75.60
2019-02-02T22:38:06.131Z,75.40
2019-02-02T22:40:35.598Z,75.88
2019-02-02T22:43:05.669Z,76.05
2019-02-02T22:45:35.095Z,76.62
2019-02-02T22:48:07.655Z,76.44
2019-02-02T22:50:37.086Z,76.09
2019-02-02T22:53:06.849Z,76.06
2019-02-02T22:55:36.483Z,76.07
2019-02-02T22:58:06.174Z,76.38
2019-02-02T23:01:04.428Z,76.15
2019-02-02T23:03:37.148Z,75.81
2019-02-02T23:06:39.274Z,75.82
2019-02-02T23:09:47.947Z,76.05
2019-02-02T23:12:30.984Z,75.64
2019-02-02T23:15:21.456Z,76.16
2019-02-02T23:17:50.884Z,76.05
2019-02-02T23:20:20.273Z,75.25
2019-02-02T23:22:49.683Z,75.22
2019-02-02T23:25:19.110Z,75.39
2019-02-02T23:27:48.505Z,75.72
2019-02-02T23:30:18.516Z,75.60
2019-02-02T23:32:47.956Z,76.41
2019-02-02T23:35:17.396Z,76.69
2019-02-02T23:37:46.999Z,76.89
2019-02-02T23:40:16.460Z,77.90
2019-02-02T23:42:46.284Z,77.03
2019-02-02T23:45:15.799Z,76.44
2019-02-02T23:47:45.222Z,75.71
2019-02-02T23:50:14.602Z,75.75
2019-02-02T23:52:44.143Z,76.37
2019-02-02T23:55:13.845Z,77.26
2019-02-02T23:57:43.458Z,77.22
